Time;durP1;ratioP1;P1;durP2;ratioP2;P2;SDS_P1;SDS_P2;PMS_P1;PMS_P2;Temp;Humidity;BMP_temperature;BMP_pressure;BME280_temperature;BME280_humidity;BME280_pressure;Samples;Min_cycle;Max_cycle;Signal;HPM_P1;HPM_P2
2023/07/14 00:00:09;;;;;;;1.87;1.70;;;;;;;16.94;66.26;101147.00;5008119;28;20232;-75
2023/07/14 00:02:38;;;;;;;4.63;2.20;;;;;;;16.94;67.93;101151.56;4992931;28;20197;-76
2023/07/14 00:05:05;;;;;;;3.10;1.97;;;;;;;16.89;67.25;101155.28;5004716;28;20218;-75
2023/07/14 00:07:32;;;;;;;2.70;2.00;;;;;;;16.87;67.27;101162.84;5001493;28;20213;-75
2023/07/14 00:09:58;;;;;;;2.20;2.00;;;;;;;16.84;68.20;101166.25;5011161;28;20271;-75
2023/07/14 00:12:26;;;;;;;2.33;2.00;;;;;;;16.78;67.03;101162.31;5008546;28;20231;-76
2023/07/14 00:14:52;;;;;;;5.73;2.77;;;;;;;16.76;68.13;101167.22;5001897;28;20323;-76
2023/07/14 00:17:19;;;;;;;3.83;2.37;;;;;;;16.79;69.47;101171.06;4992558;28;20201;-74
2023/07/14 00:19:45;;;;;;;5.33;2.60;;;;;;;16.72;67.97;101166.38;4998059;28;20209;-75
2023/07/14 00:22:12;;;;;;;4.93;2.20;;;;;;;16.68;67.90;101175.44;4990835;28;20228;-76
2023/07/14 00:24:39;;;;;;;2.97;2.30;;;;;;;16.66;68.74;101175.03;4992563;28;20257;-75
2023/07/14 00:27:16;;;;;;;3.03;2.17;;;;;;;16.62;69.02;101174.94;4992609;28;20201;-76
2023/07/14 00:29:46;;;;;;;3.20;2.30;;;;;;;16.56;67.81;101178.25;5000874;28;20199;-76
2023/07/14 00:32:17;;;;;;;2.87;2.30;;;;;;;16.54;68.69;101180.47;4992658;28;20377;-76
2023/07/14 00:34:43;;;;;;;2.80;2.50;;;;;;;16.49;68.99;101173.53;4997728;28;20263;-76
2023/07/14 00:37:10;;;;;;;4.97;2.50;;;;;;;16.46;69.19;101171.56;4991649;28;20189;-76
2023/07/14 00:39:37;;;;;;;3.30;2.50;;;;;;;16.43;69.42;101172.28;4979002;28;20228;-76
2023/07/14 00:42:07;;;;;;;3.73;2.60;;;;;;;16.40;69.38;101183.63;4974170;28;20205;-75
2023/07/14 00:44:33;;;;;;;2.57;2.30;;;;;;;16.40;70.06;101180.22;4993066;28;20296;-76
2023/07/14 00:47:01;;;;;;;4.07;2.80;;;;;;;16.38;69.60;101185.06;4984783;28;20272;-75
2023/07/14 00:49:34;;;;;;;3.77;2.50;;;;;;;16.38;69.87;101187.75;4991318;28;20197;-76
2023/07/14 00:52:05;;;;;;;2.53;2.30;;;;;;;16.37;70.26;101184.31;4977727;28;20210;-76
2023/07/14 00:54:32;;;;;;;3.63;2.27;;;;;;;16.34;69.38;101173.56;5005071;28;20240;-76
2023/07/14 00:57:01;;;;;;;5.23;2.60;;;;;;;16.29;69.28;101174.63;4974588;28;20186;-76
2023/07/14 00:59:32;;;;;;;2.60;2.40;;;;;;;16.26;69.61;101169.22;4974689;28;20228;-75
2023/07/14 01:02:20;;;;;;;3.57;2.30;;;;;;;16.25;70.43;101165.75;4973853;28;20196;-75
2023/07/14 01:04:52;;;;;;;2.93;2.43;;;;;;;16.21;69.40;101172.94;4991797;28;20217;-76
2023/07/14 01:07:23;;;;;;;4.63;2.70;;;;;;;16.19;69.88;101169.81;4974760;28;20212;-76
2023/07/14 01:09:52;;;;;;;3.43;2.80;;;;;;;16.16;69.66;101169.75;4974590;28;20205;-75
2023/07/14 01:12:22;;;;;;;3.10;2.60;;;;;;;16.13;69.70;101179.22;4987498;28;20307;-75
2023/07/14 01:14:51;;;;;;;3.80;2.30;;;;;;;16.11;70.20;101180.69;4990533;28;20587;-76
2023/07/14 01:17:21;;;;;;;2.50;2.30;;;;;;;16.06;70.71;101173.75;4994476;28;20200;-76
2023/07/14 01:19:51;;;;;;;2.93;2.67;;;;;;;16.04;70.72;101175.22;4986449;28;20271;-76
2023/07/14 01:22:24;;;;;;;5.03;2.87;;;;;;;16.03;71.21;101179.75;4991618;28;20188;-75
2023/07/14 01:24:58;;;;;;;2.80;2.57;;;;;;;16.01;70.83;101181.22;4996531;28;20233;-75
2023/07/14 01:27:25;;;;;;;4.00;2.50;;;;;;;16.01;71.64;101178.56;4964567;28;20644;-75
2023/07/14 01:29:52;;;;;;;2.93;2.70;;;;;;;15.95;70.95;101170.06;4990823;28;20198;-75
2023/07/14 01:32:22;;;;;;;3.23;2.50;;;;;;;15.95;71.08;101170.06;4986457;28;20200;-75
2023/07/14 01:34:49;;;;;;;3.87;2.87;;;;;;;15.91;70.51;101171.09;4973673;28;20585;-75
2023/07/14 01:37:19;;;;;;;3.40;2.60;;;;;;;15.85;70.45;101167.94;4991317;28;20255;-76
2023/07/14 01:39:46;;;;;;;2.87;2.40;;;;;;;15.78;70.31;101175.75;4991000;28;20303;-75
2023/07/14 01:42:13;;;;;;;2.80;2.60;;;;;;;15.70;70.35;101171.38;4990544;28;20204;-75
2023/07/14 01:44:42;;;;;;;3.27;2.60;;;;;;;15.68;71.03;101176.25;4989759;28;20232;-75
2023/07/14 01:47:11;;;;;;;3.50;3.17;;;;;;;15.66;72.00;101173.19;4994864;28;20208;-76
2023/07/14 01:49:42;;;;;;;7.60;2.80;;;;;;;15.61;71.96;101178.78;4981205;28;20208;-76
2023/07/14 01:52:14;;;;;;;3.50;2.90;;;;;;;15.59;71.61;101167.72;4994105;28;20220;-75
2023/07/14 01:54:45;;;;;;;3.60;2.53;;;;;;;15.58;71.57;101176.03;4981036;28;20317;-75
2023/07/14 01:57:15;;;;;;;3.43;3.13;;;;;;;15.55;72.10;101180.16;4992260;28;20272;-75
2023/07/14 01:59:47;;;;;;;3.27;2.80;;;;;;;15.56;72.84;101181.69;4984757;28;20229;-75
2023/07/14 02:02:21;;;;;;;4.10;2.80;;;;;;;15.55;72.75;101180.16;4981070;28;20201;-76
2023/07/14 02:04:49;;;;;;;2.87;2.50;;;;;;;15.50;71.80;101190.25;4969518;28;20576;-75
2023/07/14 02:07:17;;;;;;;3.97;2.67;;;;;;;15.54;73.29;101197.25;4972337;28;20653;-76
2023/07/14 02:09:45;;;;;;;4.23;2.90;;;;;;;15.53;73.29;101194.91;4976661;28;20200;-75
2023/07/14 02:12:15;;;;;;;4.80;3.03;;;;;;;15.53;73.52;101192.25;4979586;28;20223;-75
2023/07/14 02:14:49;;;;;;;4.10;3.10;;;;;;;15.50;73.14;101199.03;4997441;28;20235;-76
2023/07/14 02:17:27;;;;;;;6.33;3.77;;;;;;;15.52;73.51;101198.69;4987467;28;20203;-75
2023/07/14 02:19:54;;;;;;;6.23;3.37;;;;;;;15.50;73.19;101195.59;4992776;28;20212;-76
2023/07/14 02:22:22;;;;;;;4.43;3.27;;;;;;;15.49;73.47;101204.69;4990917;28;20218;-75
2023/07/14 02:24:49;;;;;;;6.97;3.23;;;;;;;15.45;72.96;101207.28;4976882;28;20227;-75
2023/07/14 02:27:16;;;;;;;5.50;3.20;;;;;;;15.43;73.93;101209.50;4976858;28;20693;-76
2023/07/14 02:29:42;;;;;;;3.83;3.30;;;;;;;15.40;72.98;101214.72;5002479;28;20192;-75
2023/07/14 02:32:17;;;;;;;8.80;3.77;;;;;;;15.36;73.02;101211.22;4994708;28;20201;-76
2023/07/14 02:34:51;;;;;;;4.27;3.03;;;;;;;15.38;73.59;101220.38;4991778;28;20779;-75
2023/07/14 02:37:40;;;;;;;6.40;3.27;;;;;;;15.39;74.47;101213.97;4989291;28;20215;-75
2023/07/14 02:40:08;;;;;;;5.47;3.10;;;;;;;15.36;73.75;101222.63;4994440;28;20270;-75
2023/07/14 02:42:37;;;;;;;4.20;3.10;;;;;;;15.33;73.90;101225.19;4979646;28;20206;-76
2023/07/14 02:45:04;;;;;;;5.90;3.33;;;;;;;15.32;73.31;101224.38;4976095;28;20726;-75
2023/07/14 02:47:37;;;;;;;3.87;2.90;;;;;;;15.34;73.73;101224.06;4992031;28;20211;-75
2023/07/14 02:50:04;;;;;;;3.23;2.93;;;;;;;15.35;74.65;101237.06;4974814;28;20683;-75
2023/07/14 02:52:31;;;;;;;3.93;3.30;;;;;;;15.37;74.78;101232.16;4993642;28;20206;-75
2023/07/14 02:54:57;;;;;;;3.30;3.00;;;;;;;15.32;74.07;101237.69;5000161;28;20230;-75
2023/07/14 02:57:23;;;;;;;3.60;3.20;;;;;;;15.32;74.49;101235.03;4989753;28;20206;-76
2023/07/14 02:59:50;;;;;;;5.13;3.27;;;;;;;15.35;74.25;101238.94;4999970;28;20227;-76
2023/07/14 03:02:16;;;;;;;4.17;3.37;;;;;;;15.31;74.45;101241.47;4998208;28;20223;-76
2023/07/14 03:04:44;;;;;;;4.33;3.47;;;;;;;15.31;74.84;101238.06;5002025;28;20239;-76
2023/07/14 03:07:11;;;;;;;3.67;3.10;;;;;;;15.29;74.23;101238.38;4991393;28;20212;-76
2023/07/14 03:09:37;;;;;;;3.93;3.07;;;;;;;15.30;74.22;101239.16;4979591;28;20206;-76
2023/07/14 03:12:04;;;;;;;3.53;3.17;;;;;;;15.27;74.07;101245.91;4965375;28;20197;-76
2023/07/14 03:14:31;;;;;;;3.27;2.83;;;;;;;15.32;74.96;101242.25;4991996;28;20231;-76
2023/07/14 03:16:57;;;;;;;3.20;2.90;;;;;;;15.32;74.63;101248.34;4994436;28;20260;-76
2023/07/14 03:19:25;;;;;;;3.80;3.40;;;;;;;15.29;73.76;101235.72;4988996;28;20247;-76
2023/07/14 03:21:52;;;;;;;4.77;3.43;;;;;;;15.27;73.39;101251.25;4987669;28;20635;-76
2023/07/14 03:24:19;;;;;;;3.33;3.03;;;;;;;15.29;73.51;101249.03;4993181;28;20216;-76
2023/07/14 03:26:45;;;;;;;4.13;3.10;;;;;;;15.28;73.56;101260.78;4995661;28;20232;-76
2023/07/14 03:29:12;;;;;;;3.60;3.30;;;;;;;15.27;72.89;101250.47;4992067;28;20636;-76
2023/07/14 03:31:38;;;;;;;5.50;3.30;;;;;;;15.37;74.49;101252.69;4993674;28;20283;-76
2023/07/14 03:34:05;;;;;;;3.93;3.60;;;;;;;15.36;74.18;101251.13;4994216;28;20285;-76
2023/07/14 03:36:31;;;;;;;5.37;3.60;;;;;;;15.42;74.63;101245.22;4995712;28;20368;-76
2023/07/14 03:39:23;;;;;;;4.20;3.63;;;;;;;15.41;73.86;101242.88;4977611;28;20203;-76
2023/07/14 03:41:50;;;;;;;3.80;3.20;;;;;;;15.44;74.25;101243.00;5004648;28;20195;-76
2023/07/14 03:44:16;;;;;;;5.83;3.50;;;;;;;15.49;73.66;101237.41;5006183;28;20232;-76
2023/07/14 03:46:42;;;;;;;3.40;3.10;;;;;;;15.52;73.91;101236.72;4975658;28;20586;-76
2023/07/14 03:49:09;;;;;;;4.10;3.20;;;;;;;15.57;73.48;101246.38;4993814;28;20578;-76
2023/07/14 03:51:35;;;;;;;3.90;3.20;;;;;;;15.60;73.29;101245.66;4994310;28;20195;-76
2023/07/14 03:54:01;;;;;;;4.33;3.40;;;;;;;15.63;73.80;101243.09;4974743;28;20243;-75
2023/07/14 03:56:29;;;;;;;3.60;2.93;;;;;;;15.72;73.64;101238.38;4990491;28;20559;-76
2023/07/14 03:58:55;;;;;;;4.37;3.37;;;;;;;15.76;73.08;101238.44;4997495;28;20212;-76
2023/07/14 04:01:22;;;;;;;3.80;3.27;;;;;;;15.77;73.61;101235.44;4986265;28;20564;-76
2023/07/14 04:03:49;;;;;;;3.80;3.00;;;;;;;15.80;73.07;101237.44;4992504;28;20290;-76
2023/07/14 04:06:16;;;;;;;3.40;3.10;;;;;;;15.82;72.66;101243.19;4992559;28;20664;-76
2023/07/14 04:08:43;;;;;;;4.93;3.17;;;;;;;15.94;73.12;101239.66;4985849;28;20284;-77
2023/07/14 04:11:13;;;;;;;4.10;3.03;;;;;;;16.04;73.43;101245.22;4988176;28;20204;-76
2023/07/14 04:13:40;;;;;;;4.70;2.93;;;;;;;16.13;73.46;101237.84;4970227;28;20202;-75
2023/07/14 04:16:08;;;;;;;3.80;2.80;;;;;;;16.16;72.43;101244.38;4973936;28;20208;-76
2023/07/14 04:18:34;;;;;;;4.30;3.20;;;;;;;16.21;71.82;101242.22;4993860;28;20204;-75
2023/07/14 04:21:01;;;;;;;3.37;3.03;;;;;;;16.32;72.34;101245.09;4988020;28;20209;-76
2023/07/14 04:23:28;;;;;;;3.90;3.23;;;;;;;16.33;70.66;101246.66;4989995;28;20205;-75
2023/07/14 04:25:54;;;;;;;5.40;3.20;;;;;;;16.38;70.51;101246.38;4988982;28;20309;-76
2023/07/14 04:28:21;;;;;;;4.97;3.20;;;;;;;16.43;70.18;101254.13;4988691;28;20365;-76
2023/07/14 04:30:54;;;;;;;5.23;3.10;;;;;;;16.49;69.63;101248.19;4988873;28;20201;-75
2023/07/14 04:33:21;;;;;;;3.23;2.90;;;;;;;16.56;69.40;101250.25;4987980;28;20210;-76
2023/07/14 04:35:48;;;;;;;3.53;2.80;;;;;;;16.67;70.46;101256.56;4961359;28;20233;-76
2023/07/14 04:38:14;;;;;;;4.37;3.20;;;;;;;16.72;69.04;101257.06;5003394;28;20208;-76
2023/07/14 04:40:41;;;;;;;5.63;3.10;;;;;;;16.79;68.90;101262.56;5008069;28;20740;-76
2023/07/14 04:43:07;;;;;;;3.13;2.87;;;;;;;16.88;68.44;101262.34;5007961;28;20209;-76
2023/07/14 04:45:37;;;;;;;4.07;2.80;;;;;;;16.95;67.95;101260.59;5009091;28;20300;-75
2023/07/14 04:48:05;;;;;;;3.30;2.97;;;;;;;17.03;68.34;101264.16;5008986;28;20205;-75
2023/07/14 04:50:32;;;;;;;4.03;2.90;;;;;;;17.09;66.81;101268.88;5007066;28;20197;-76
2023/07/14 04:52:58;;;;;;;4.17;3.20;;;;;;;17.22;67.58;101270.25;5022085;28;20606;-76
2023/07/14 04:55:26;;;;;;;4.57;2.80;;;;;;;17.27;66.40;101266.53;5008334;28;20225;-75
2023/07/14 04:57:52;;;;;;;3.43;2.60;;;;;;;17.35;66.77;101277.00;5007855;28;20207;-75
2023/07/14 05:00:20;;;;;;;4.40;3.10;;;;;;;17.44;66.88;101279.47;5008748;28;20238;-76
2023/07/14 05:02:47;;;;;;;3.57;2.80;;;;;;;17.51;65.83;101282.28;5007939;28;20219;-76
2023/07/14 05:05:18;;;;;;;3.13;2.67;;;;;;;17.61;66.78;101287.81;5007814;28;20235;-76
2023/07/14 05:07:45;;;;;;;3.10;2.53;;;;;;;17.70;66.60;101280.31;5008687;28;20213;-77
2023/07/14 05:10:11;;;;;;;5.47;3.00;;;;;;;17.78;65.96;101286.56;4992873;28;20534;-76
2023/07/14 05:12:38;;;;;;;5.37;2.93;;;;;;;17.87;65.66;101287.09;5007935;28;20231;-76
2023/07/14 05:15:05;;;;;;;4.83;2.70;;;;;;;17.96;65.37;101285.72;4993207;28;20640;-76
2023/07/14 05:17:33;;;;;;;3.23;2.93;;;;;;;18.03;64.36;101288.53;5007637;28;20199;-77
2023/07/14 05:19:59;;;;;;;3.60;2.63;;;;;;;18.14;64.91;101294.81;5007398;28;20195;-76
2023/07/14 05:22:27;;;;;;;3.57;2.93;;;;;;;18.26;64.36;101297.28;5009074;28;20200;-76
2023/07/14 05:24:53;;;;;;;4.17;2.80;;;;;;;18.33;63.62;101296.66;5007822;28;20602;-77
2023/07/14 05:27:21;;;;;;;5.30;3.13;;;;;;;18.40;63.63;101294.84;5009361;28;20281;-76
2023/07/14 05:29:49;;;;;;;3.10;2.80;;;;;;;18.53;64.19;101290.81;5007401;28;20205;-76
2023/07/14 05:32:16;;;;;;;5.90;2.90;;;;;;;18.59;62.31;101286.72;5006226;28;20200;-76
2023/07/14 05:34:42;;;;;;;3.47;2.77;;;;;;;18.67;62.04;101282.25;5008814;28;20224;-77
2023/07/14 05:37:09;;;;;;;3.03;2.60;;;;;;;18.77;62.40;101287.72;5007715;28;20208;-76
2023/07/14 05:39:36;;;;;;;4.40;3.07;;;;;;;18.86;62.40;101282.88;5007209;28;20200;-77
2023/07/14 05:42:03;;;;;;;3.20;2.60;;;;;;;18.91;61.24;101279.88;5007290;28;20216;-76
2023/07/14 05:44:30;;;;;;;3.37;2.80;;;;;;;18.99;61.12;101286.09;5011728;28;20307;-77
2023/07/14 05:46:56;;;;;;;5.43;3.13;;;;;;;19.08;60.62;101286.56;5026270;28;20197;-77
2023/07/14 05:49:22;;;;;;;4.93;2.77;;;;;;;19.16;60.69;101291.66;5011667;28;20691;-77
2023/07/14 05:51:49;;;;;;;3.87;2.77;;;;;;;19.24;60.37;101287.94;5010191;28;20193;-77
2023/07/14 05:54:15;;;;;;;4.90;3.03;;;;;;;19.30;59.60;101291.06;5010609;28;20231;-76
2023/07/14 05:56:43;;;;;;;3.00;2.70;;;;;;;19.41;60.37;101295.38;5010045;28;20205;-76
2023/07/14 05:59:10;;;;;;;3.30;3.00;;;;;;;19.47;59.31;101295.81;5009554;28;20197;-77
2023/07/14 06:01:37;;;;;;;3.80;3.20;;;;;;;19.51;58.11;101285.91;5007757;28;20282;-76
2023/07/14 06:04:05;;;;;;;3.80;2.90;;;;;;;19.58;58.07;101292.13;5009067;28;20232;-77
2023/07/14 06:06:31;;;;;;;4.30;3.10;;;;;;;19.64;57.85;101285.28;5009130;28;20358;-76
2023/07/14 06:08:58;;;;;;;5.73;2.77;;;;;;;19.70;57.79;101291.06;5009627;28;20205;-76
2023/07/14 06:11:25;;;;;;;3.00;2.70;;;;;;;19.79;57.70;101292.31;5008562;28;20435;-77
2023/07/14 06:13:52;;;;;;;4.07;2.80;;;;;;;19.84;57.52;101291.19;5009480;28;20224;-77
2023/07/14 06:16:20;;;;;;;4.10;2.77;;;;;;;19.91;58.09;101286.66;5010164;28;20208;-76
2023/07/14 06:18:46;;;;;;;4.97;2.77;;;;;;;19.98;57.16;101281.34;5010064;28;20208;-77
2023/07/14 06:21:13;;;;;;;2.73;2.37;;;;;;;20.08;58.19;101277.25;5009681;28;20227;-76
2023/07/14 06:23:39;;;;;;;3.03;2.73;;;;;;;20.16;57.10;101276.16;5009684;28;20771;-77
2023/07/14 06:26:05;;;;;;;2.77;2.47;;;;;;;20.26;56.59;101283.50;5009527;28;20212;-76
2023/07/14 06:28:32;;;;;;;4.10;2.50;;;;;;;20.33;56.54;101275.53;5009554;28;20215;-76
2023/07/14 06:31:04;;;;;;;5.97;2.87;;;;;;;20.44;57.01;101281.72;5009022;28;20219;-76
2023/07/14 06:33:30;;;;;;;7.07;3.17;;;;;;;20.51;55.78;101281.75;5009531;28;20196;-77
2023/07/14 06:35:57;;;;;;;4.23;2.77;;;;;;;20.60;56.02;101274.88;5010194;28;20235;-77
2023/07/14 06:38:24;;;;;;;4.87;2.90;;;;;;;20.71;55.25;101277.63;5009280;28;20205;-76
2023/07/14 06:40:55;;;;;;;4.80;2.90;;;;;;;20.77;54.84;101273.44;5006484;28;20212;-77
2023/07/14 06:43:22;;;;;;;4.10;2.30;;;;;;;20.86;53.98;101279.25;5009764;28;20310;-77
2023/07/14 06:45:49;;;;;;;3.73;2.20;;;;;;;20.94;54.15;101276.25;5009040;28;20235;-77
2023/07/14 06:48:17;;;;;;;3.97;2.40;;;;;;;21.04;53.55;101277.41;5008681;28;20219;-76
2023/07/14 06:50:43;;;;;;;5.27;2.67;;;;;;;21.11;54.39;101272.84;5008181;28;20220;-77
2023/07/14 06:53:10;;;;;;;3.00;2.27;;;;;;;21.20;52.63;101273.25;5007218;28;20573;-77
2023/07/14 06:55:37;;;;;;;2.13;1.93;;;;;;;21.27;53.42;101273.25;5008281;28;20600;-77
2023/07/14 06:58:03;;;;;;;3.53;2.20;;;;;;;21.35;51.47;101274.03;5006906;28;20703;-77
2023/07/14 07:00:31;;;;;;;3.67;2.10;;;;;;;21.44;52.33;101277.16;5008317;28;20251;-77
2023/07/14 07:02:57;;;;;;;3.87;2.20;;;;;;;21.50;52.96;101281.00;5007910;28;20212;-77
2023/07/14 07:05:25;;;;;;;4.97;2.07;;;;;;;21.58;51.83;101279.88;5007938;28;20723;-76
2023/07/14 07:07:51;;;;;;;2.30;2.10;;;;;;;21.66;52.01;101281.38;5007443;28;20587;-77
2023/07/14 07:10:18;;;;;;;2.63;2.00;;;;;;;21.68;50.23;101281.81;5008911;28;20212;-76
2023/07/14 07:12:45;;;;;;;5.03;2.47;;;;;;;21.75;50.01;101279.91;5008239;28;20213;-77
2023/07/14 07:15:11;;;;;;;3.30;2.10;;;;;;;21.81;50.50;101282.97;5007663;28;20767;-77
2023/07/14 07:17:38;;;;;;;3.43;2.07;;;;;;;21.83;50.48;101275.31;5007164;28;20207;-77
2023/07/14 07:20:06;;;;;;;2.20;1.70;;;;;;;21.91;50.45;101280.28;5007387;28;20205;-77
2023/07/14 07:22:35;;;;;;;3.63;2.10;;;;;;;21.97;49.63;101278.75;5005951;28;20212;-77
2023/07/14 07:25:01;;;;;;;2.17;1.97;;;;;;;22.02;51.41;101267.59;5007456;28;20234;-77
2023/07/14 07:27:28;;;;;;;3.33;2.10;;;;;;;22.08;50.01;101263.38;5006402;28;20212;-77
2023/07/14 07:29:54;;;;;;;3.80;2.03;;;;;;;22.16;49.83;101266.81;5007441;28;20700;-77
2023/07/14 07:32:20;;;;;;;3.40;1.63;;;;;;;22.25;48.93;101261.81;5006560;28;20197;-77
2023/07/14 07:34:47;;;;;;;4.03;2.03;;;;;;;22.32;48.69;101269.88;5007045;28;20239;-77
2023/07/14 07:37:14;;;;;;;2.37;1.90;;;;;;;22.34;46.47;101272.94;5006884;28;20271;-76
2023/07/14 07:39:42;;;;;;;3.20;2.07;;;;;;;22.39;48.65;101270.63;5008413;28;20204;-77
2023/07/14 07:42:08;;;;;;;4.80;2.33;;;;;;;22.44;47.44;101272.94;5016205;28;20216;-77
2023/07/14 07:44:35;;;;;;;2.40;2.03;;;;;;;22.45;48.28;101271.78;5021448;28;20224;-77
2023/07/14 07:47:02;;;;;;;2.20;1.70;;;;;;;22.56;48.35;101271.78;5021714;28;20211;-76
2023/07/14 07:49:29;;;;;;;2.40;2.10;;;;;;;22.66;47.60;101270.97;5029040;28;20193;-77
2023/07/14 07:51:55;;;;;;;3.30;1.90;;;;;;;22.68;46.86;101269.44;5028165;28;20224;-77
2023/07/14 07:54:22;;;;;;;4.40;2.10;;;;;;;22.77;47.60;101261.69;5007309;28;20227;-77
2023/07/14 07:56:49;;;;;;;4.00;2.20;;;;;;;22.81;47.68;101256.31;5006466;28;20200;-77
2023/07/14 07:59:16;;;;;;;3.30;1.97;;;;;;;22.89;47.39;101258.56;4989508;28;20212;-77
2023/07/14 08:01:43;;;;;;;3.80;2.03;;;;;;;22.95;46.11;101256.22;5004858;28;20217;-77
2023/07/14 08:04:10;;;;;;;1.80;1.70;;;;;;;23.04;46.93;101260.03;5002953;28;20224;-77
2023/07/14 08:06:37;;;;;;;2.70;2.13;;;;;;;23.10;47.02;101250.38;5004834;28;20292;-77
2023/07/14 08:09:04;;;;;;;3.33;1.87;;;;;;;23.21;47.61;101247.63;5005568;28;20236;-77
2023/07/14 08:11:30;;;;;;;3.50;2.20;;;;;;;23.29;47.03;101247.19;5005950;28;20728;-77
2023/07/14 08:13:58;;;;;;;1.80;1.70;;;;;;;23.34;45.14;101244.09;5005832;28;20228;-76
2023/07/14 08:16:25;;;;;;;2.20;2.00;;;;;;;23.41;45.30;101243.28;5005197;28;20235;-76
2023/07/14 08:18:52;;;;;;;2.70;2.27;;;;;;;23.44;45.51;101247.88;5005540;28;20220;-77
2023/07/14 08:21:18;;;;;;;3.20;1.80;;;;;;;23.51;44.16;101239.75;5004460;28;20442;-77
2023/07/14 08:23:44;;;;;;;2.27;1.83;;;;;;;23.54;44.12;101237.00;5005138;28;20224;-77
2023/07/14 08:26:12;;;;;;;3.10;1.80;;;;;;;23.63;43.19;101249.28;5003236;28;20200;-77
2023/07/14 08:28:39;;;;;;;2.27;1.57;;;;;;;23.71;43.86;101243.44;5002139;28;20266;-76
2023/07/14 08:31:10;;;;;;;2.57;1.90;;;;;;;23.73;43.43;101232.25;5002783;28;20211;-78
2023/07/14 08:33:37;;;;;;;3.80;1.70;;;;;;;23.77;43.63;101229.13;5001899;28;20223;-78
2023/07/14 08:36:05;;;;;;;4.47;1.90;;;;;;;23.85;42.90;101230.59;5000778;28;20210;-76
2023/07/14 08:38:33;;;;;;;2.90;2.00;;;;;;;23.93;42.50;101234.03;5000785;28;20204;-76
2023/07/14 08:41:06;;;;;;;2.83;1.83;;;;;;;23.99;43.62;101235.13;5001374;28;20586;-77
2023/07/14 08:43:49;;;;;;;1.97;1.77;;;;;;;24.04;41.84;101223.13;4999895;28;20208;-78
2023/07/14 08:46:23;;;;;;;2.97;2.00;;;;;;;24.11;42.28;101228.47;5000641;28;20207;-76
2023/07/14 08:48:59;;;;;;;5.50;2.20;;;;;;;24.19;43.73;101230.69;5001344;28;20835;-76
2023/07/14 08:51:34;;;;;;;4.60;2.00;;;;;;;24.31;43.67;101224.78;5000337;28;20204;-76
2023/07/14 08:54:06;;;;;;;2.70;1.80;;;;;;;24.38;42.60;101222.00;5001717;28;20262;-77
2023/07/14 08:56:37;;;;;;;2.05;1.50;;;;;;;24.48;43.04;101219.16;5000165;28;20212;-78
2023/07/14 08:59:05;;;;;;;3.10;1.90;;;;;;;24.56;42.70;101221.78;4985433;28;20213;-77
2023/07/14 09:01:40;;;;;;;1.73;1.60;;;;;;;24.60;41.45;101217.91;5013864;28;20216;-76
2023/07/14 09:04:14;;;;;;;5.40;1.80;;;;;;;24.65;39.97;101220.16;4999970;28;20220;-76
2023/07/14 09:06:41;;;;;;;3.42;1.60;;;;;;;24.68;41.95;101207.78;4999903;28;20216;-77
2023/07/14 09:09:15;;;;;;;1.55;1.45;;;;;;;24.73;41.02;101215.44;4999553;28;20307;-78
2023/07/14 09:12:02;;;;;;;2.15;1.77;;;;;;;24.78;40.15;101220.38;4999330;28;20200;-78
2023/07/14 09:14:43;;;;;;;4.93;1.98;;;;;;;24.81;40.97;101220.34;4999050;28;20228;-76
2023/07/14 09:17:24;;;;;;;3.78;2.13;;;;;;;24.84;39.45;101218.75;4998422;28;20218;-78
2023/07/14 09:20:12;;;;;;;2.72;1.67;;;;;;;24.94;40.79;101220.56;4999223;28;20208;-76
2023/07/14 09:22:47;;;;;;;2.88;1.67;;;;;;;25.04;42.05;101217.72;4998886;28;20570;-76
2023/07/14 09:25:21;;;;;;;3.03;1.80;;;;;;;25.12;40.78;101212.97;4999293;28;20235;-76
2023/07/14 09:27:49;;;;;;;2.55;2.03;;;;;;;25.18;40.86;101203.97;4998645;28;20205;-77
2023/07/14 09:30:19;;;;;;;2.53;1.75;;;;;;;25.31;41.33;101206.91;4998190;28;20218;-76
2023/07/14 09:32:51;;;;;;;4.07;1.80;;;;;;;25.32;40.97;101205.72;4999558;28;20205;-77
2023/07/14 09:35:20;;;;;;;3.22;1.73;;;;;;;25.38;40.31;101212.22;4999704;28;20725;-77
2023/07/14 09:37:52;;;;;;;2.28;1.90;;;;;;;25.43;40.00;101200.94;4998517;28;20209;-76
2023/07/14 09:40:21;;;;;;;2.78;1.67;;;;;;;25.48;38.40;101198.53;4998979;28;20824;-76
2023/07/14 09:42:51;;;;;;;3.67;1.75;;;;;;;25.54;38.44;101199.56;4996022;28;20220;-76
2023/07/14 09:45:20;;;;;;;3.75;2.10;;;;;;;25.50;37.93;101198.91;4998067;28;20719;-76
2023/07/14 09:47:56;;;;;;;1.63;1.52;;;;;;;25.52;38.40;101199.22;4999385;28;20296;-77
2023/07/14 09:50:25;;;;;;;2.83;1.90;;;;;;;25.59;37.42;101191.00;4998289;28;20284;-77
2023/07/14 09:52:54;;;;;;;3.72;1.60;;;;;;;25.60;38.48;101195.25;4997522;28;20208;-76
2023/07/14 09:55:21;;;;;;;2.15;1.55;;;;;;;25.68;39.57;101185.81;4997483;28;20231;-76
2023/07/14 09:57:51;;;;;;;3.25;1.73;;;;;;;25.77;40.74;101186.06;4996638;28;20216;-78
2023/07/14 10:00:22;;;;;;;1.80;1.60;;;;;;;25.82;36.28;101190.22;4998813;28;20691;-79
2023/07/14 10:03:06;;;;;;;2.35;1.70;;;;;;;25.86;36.48;101174.69;5012574;28;20243;-77
2023/07/14 10:05:47;;;;;;;2.45;1.30;;;;;;;25.94;36.39;101178.81;4999356;28;20227;-78
2023/07/14 10:08:29;;;;;;;2.80;1.80;;;;;;;26.00;36.66;101174.47;4998242;28;21501;-79
2023/07/14 10:10:59;;;;;;;2.47;1.70;;;;;;;26.03;36.82;101174.41;4998110;28;20831;-77
2023/07/14 10:13:28;;;;;;;2.80;1.52;;;;;;;26.08;36.60;101171.19;4997257;28;20201;-76
2023/07/14 10:15:58;;;;;;;1.80;1.55;;;;;;;26.17;37.44;101160.59;4996696;28;20750;-78
2023/07/14 10:18:27;;;;;;;2.72;1.80;;;;;;;26.31;38.66;101165.72;4997023;28;20275;-76
2023/07/14 10:20:58;;;;;;;3.28;1.63;;;;;;;26.42;37.45;101163.53;4994680;28;20208;-78
2023/07/14 10:23:25;;;;;;;1.90;1.50;;;;;;;26.50;37.56;101161.44;4994459;28;20212;-76
2023/07/14 10:25:54;;;;;;;2.25;1.50;;;;;;;26.53;35.66;101158.66;4993988;28;20268;-77
2023/07/14 10:28:27;;;;;;;3.13;1.90;;;;;;;26.58;38.06;101149.31;4978501;28;20212;-79
2023/07/14 10:31:01;;;;;;;3.35;1.80;;;;;;;26.65;37.20;101143.75;4990824;28;20701;-77
2023/07/14 10:33:39;;;;;;;1.98;1.50;;;;;;;26.77;36.15;101146.56;4998588;28;20220;-76
2023/07/14 10:36:13;;;;;;;3.47;1.70;;;;;;;26.87;35.12;101142.06;5000526;28;20223;-76
2023/07/14 10:38:45;;;;;;;2.33;1.27;;;;;;;26.99;36.13;101139.47;4979775;28;20199;-77
2023/07/14 10:41:12;;;;;;;1.40;1.30;;;;;;;27.10;36.23;101144.66;4998026;28;20201;-76
2023/07/14 10:43:42;;;;;;;3.03;1.30;;;;;;;27.28;35.53;101134.91;4996452;28;20213;-76
2023/07/14 10:46:18;;;;;;;2.05;1.52;;;;;;;27.39;34.71;101140.09;4995575;28;20211;-77
2023/07/14 10:48:53;;;;;;;1.65;1.40;;;;;;;27.51;34.13;101140.13;4997309;28;20212;-76
2023/07/14 10:51:28;;;;;;;1.95;1.35;;;;;;;27.64;33.62;101134.78;4994725;28;21633;-76
2023/07/14 10:54:01;;;;;;;2.20;1.48;;;;;;;27.71;31.54;101140.03;4994711;28;20192;-77
2023/07/14 10:56:35;;;;;;;4.00;1.60;;;;;;;27.77;32.11;101125.50;4996466;28;20225;-77
2023/07/14 10:59:13;;;;;;;1.67;1.23;;;;;;;27.81;32.04;101120.75;4996044;28;20246;-77
2023/07/14 11:01:44;;;;;;;4.00;1.40;;;;;;;27.87;32.74;101121.00;4994234;28;20693;-77
2023/07/14 11:04:20;;;;;;;3.65;1.55;;;;;;;27.90;31.55;101115.47;4995545;28;20304;-76
2023/07/14 11:06:49;;;;;;;1.30;1.20;;;;;;;27.98;32.32;101111.38;4995585;28;20203;-76
2023/07/14 11:09:16;;;;;;;2.65;1.60;;;;;;;28.03;31.70;101099.97;4996245;28;20212;-78
2023/07/14 11:11:50;;;;;;;3.40;1.70;;;;;;;28.09;32.10;101108.34;4994453;28;20414;-78
2023/07/14 11:14:27;;;;;;;1.77;1.52;;;;;;;27.96;31.99;101111.03;4993467;28;20228;-76
2023/07/14 11:17:03;;;;;;;3.28;1.33;;;;;;;28.02;31.18;101101.16;4994425;28;20578;-78
2023/07/14 11:19:47;;;;;;;5.60;1.88;;;;;;;28.06;30.37;101093.69;4996069;28;20200;-75
2023/07/14 11:22:23;;;;;;;2.08;1.50;;;;;;;28.08;31.80;101095.97;4995518;28;20220;-76
2023/07/14 11:25:05;;;;;;;1.60;1.50;;;;;;;27.97;32.89;101093.56;4996785;28;20723;-77
2023/07/14 11:27:36;;;;;;;2.00;1.55;;;;;;;28.06;33.31;101090.97;5006874;28;20212;-77
2023/07/14 11:30:12;;;;;;;2.63;1.65;;;;;;;28.13;32.80;101087.28;4994185;28;20215;-78
2023/07/14 11:32:48;;;;;;;2.78;1.50;;;;;;;28.19;32.14;101086.34;4993661;28;20347;-77